sensor_id;sensor_type;location;lat;lon;timestamp;temperature;humidity
56869;DHT22;42754;0.000;0.000;2023-05-23T00:00:23;15.50;99.90
56869;DHT22;42754;0.000;0.000;2023-05-23T00:02:49;15.60;99.90
56869;DHT22;42754;0.000;0.000;2023-05-23T00:05:14;15.60;99.90
56869;DHT22;42754;0.000;0.000;2023-05-23T00:07:43;15.60;99.90
56869;DHT22;42754;0.000;0.000;2023-05-23T00:10:09;15.60;99.90
56869;DHT22;42754;0.000;0.000;2023-05-23T00:12:34;15.50;99.90
56869;DHT22;42754;0.000;0.000;2023-05-23T00:15:02;15.50;99.90
56869;DHT22;42754;0.000;0.000;2023-05-23T00:17:28;15.50;99.90
56869;DHT22;42754;0.000;0.000;2023-05-23T00:19:54;15.50;99.90
56869;DHT22;42754;0.000;0.000;2023-05-23T00:22:20;15.50;99.90
56869;DHT22;42754;0.000;0.000;2023-05-23T00:24:46;15.50;99.90
56869;DHT22;42754;0.000;0.000;2023-05-23T00:27:11;15.40;99.90
56869;DHT22;42754;0.000;0.000;2023-05-23T00:29:37;15.50;99.90
56869;DHT22;42754;0.000;0.000;2023-05-23T00:32:02;15.40;99.90
56869;DHT22;42754;0.000;0.000;2023-05-23T00:34:28;15.50;99.90
56869;DHT22;42754;0.000;0.000;2023-05-23T00:36:54;15.40;99.90
56869;DHT22;42754;0.000;0.000;2023-05-23T00:39:19;15.50;99.90
56869;DHT22;42754;0.000;0.000;2023-05-23T00:41:48;15.50;99.90
56869;DHT22;42754;0.000;0.000;2023-05-23T00:44:14;15.50;99.90
56869;DHT22;42754;0.000;0.000;2023-05-23T00:46:40;15.40;99.90
56869;DHT22;42754;0.000;0.000;2023-05-23T00:49:07;15.40;99.90
56869;DHT22;42754;0.000;0.000;2023-05-23T00:51:33;15.50;99.90
56869;DHT22;42754;0.000;0.000;2023-05-23T00:53:59;15.50;99.90
56869;DHT22;42754;0.000;0.000;2023-05-23T00:56:25;15.40;99.90
56869;DHT22;42754;0.000;0.000;2023-05-23T00:58:52;15.40;99.90
56869;DHT22;42754;0.000;0.000;2023-05-23T01:01:18;15.40;99.90
56869;DHT22;42754;0.000;0.000;2023-05-23T01:03:43;15.30;99.90
56869;DHT22;42754;0.000;0.000;2023-05-23T01:06:10;15.30;99.90
56869;DHT22;42754;0.000;0.000;2023-05-23T01:08:36;15.30;99.90
56869;DHT22;42754;0.000;0.000;2023-05-23T01:11:03;15.30;99.90
56869;DHT22;42754;0.000;0.000;2023-05-23T01:16:10;15.10;99.90
56869;DHT22;42754;0.000;0.000;2023-05-23T01:18:47;15.00;99.90
56869;DHT22;42754;0.000;0.000;2023-05-23T01:21:15;14.90;99.90
56869;DHT22;42754;0.000;0.000;2023-05-23T01:28:54;15.00;99.90
56869;DHT22;42754;0.000;0.000;2023-05-23T01:31:20;15.00;99.90
56869;DHT22;42754;0.000;0.000;2023-05-23T01:33:46;15.00;99.90
56869;DHT22;42754;0.000;0.000;2023-05-23T01:36:14;14.90;99.90
56869;DHT22;42754;0.000;0.000;2023-05-23T01:38:41;14.90;99.90
56869;DHT22;42754;0.000;0.000;2023-05-23T01:41:07;14.90;99.90
56869;DHT22;42754;0.000;0.000;2023-05-23T01:43:32;14.90;99.90
56869;DHT22;42754;0.000;0.000;2023-05-23T01:45:58;14.90;99.90
56869;DHT22;42754;0.000;0.000;2023-05-23T01:48:25;14.90;99.90
56869;DHT22;42754;0.000;0.000;2023-05-23T01:50:51;14.90;99.90
56869;DHT22;42754;0.000;0.000;2023-05-23T01:53:19;14.90;99.90
56869;DHT22;42754;0.000;0.000;2023-05-23T01:55:44;14.90;99.90
56869;DHT22;42754;0.000;0.000;2023-05-23T01:58:12;14.80;99.90
56869;DHT22;42754;0.000;0.000;2023-05-23T02:00:37;14.80;99.90
56869;DHT22;42754;0.000;0.000;2023-05-23T02:03:03;14.80;99.90
56869;DHT22;42754;0.000;0.000;2023-05-23T02:05:28;14.90;99.90
56869;DHT22;42754;0.000;0.000;2023-05-23T02:07:54;14.90;99.90
56869;DHT22;42754;0.000;0.000;2023-05-23T02:10:20;14.90;99.90
56869;DHT22;42754;0.000;0.000;2023-05-23T02:12:45;14.90;99.90
56869;DHT22;42754;0.000;0.000;2023-05-23T02:15:11;14.80;99.90
56869;DHT22;42754;0.000;0.000;2023-05-23T02:17:37;14.80;99.90
56869;DHT22;42754;0.000;0.000;2023-05-23T02:20:06;14.90;99.90
56869;DHT22;42754;0.000;0.000;2023-05-23T02:22:32;14.80;99.90
56869;DHT22;42754;0.000;0.000;2023-05-23T02:24:58;14.80;99.90
56869;DHT22;42754;0.000;0.000;2023-05-23T02:27:23;14.70;99.90
56869;DHT22;42754;0.000;0.000;2023-05-23T02:29:49;14.70;99.90
56869;DHT22;42754;0.000;0.000;2023-05-23T02:32:14;14.70;99.90
56869;DHT22;42754;0.000;0.000;2023-05-23T02:34:40;14.70;99.90
56869;DHT22;42754;0.000;0.000;2023-05-23T02:37:06;14.80;99.90
56869;DHT22;42754;0.000;0.000;2023-05-23T02:39:33;14.80;99.90
56869;DHT22;42754;0.000;0.000;2023-05-23T02:41:59;14.80;99.90
56869;DHT22;42754;0.000;0.000;2023-05-23T02:44:25;14.80;99.90
56869;DHT22;42754;0.000;0.000;2023-05-23T02:46:51;14.80;99.90
56869;DHT22;42754;0.000;0.000;2023-05-23T02:49:17;14.80;99.90
56869;DHT22;42754;0.000;0.000;2023-05-23T02:51:42;14.70;99.90
56869;DHT22;42754;0.000;0.000;2023-05-23T02:54:08;14.70;99.90
56869;DHT22;42754;0.000;0.000;2023-05-23T02:56:33;14.60;99.90
56869;DHT22;42754;0.000;0.000;2023-05-23T02:58:59;14.60;99.90
56869;DHT22;42754;0.000;0.000;2023-05-23T03:01:24;14.60;99.90
56869;DHT22;42754;0.000;0.000;2023-05-23T03:03:50;14.60;99.90
56869;DHT22;42754;0.000;0.000;2023-05-23T03:06:15;14.60;99.90
56869;DHT22;42754;0.000;0.000;2023-05-23T03:08:41;14.60;99.90
56869;DHT22;42754;0.000;0.000;2023-05-23T03:11:07;14.60;99.90
56869;DHT22;42754;0.000;0.000;2023-05-23T03:13:33;14.60;99.90
56869;DHT22;42754;0.000;0.000;2023-05-23T03:15:59;14.60;99.90
56869;DHT22;42754;0.000;0.000;2023-05-23T03:18:25;14.50;99.90
56869;DHT22;42754;0.000;0.000;2023-05-23T03:20:53;14.50;99.90
56869;DHT22;42754;0.000;0.000;2023-05-23T03:23:19;14.50;99.90
56869;DHT22;42754;0.000;0.000;2023-05-23T03:25:51;14.40;99.90
56869;DHT22;42754;0.000;0.000;2023-05-23T03:28:16;14.40;99.90
56869;DHT22;42754;0.000;0.000;2023-05-23T03:33:19;14.40;99.90
56869;DHT22;42754;0.000;0.000;2023-05-23T03:35:45;14.40;99.90
56869;DHT22;42754;0.000;0.000;2023-05-23T03:38:10;14.40;99.90
56869;DHT22;42754;0.000;0.000;2023-05-23T03:40:36;14.40;99.90
56869;DHT22;42754;0.000;0.000;2023-05-23T03:43:02;14.40;99.90
56869;DHT22;42754;0.000;0.000;2023-05-23T03:45:29;14.40;99.90
56869;DHT22;42754;0.000;0.000;2023-05-23T03:47:55;14.40;99.90
56869;DHT22;42754;0.000;0.000;2023-05-23T03:50:22;14.40;99.90
56869;DHT22;42754;0.000;0.000;2023-05-23T03:52:48;14.40;99.90
56869;DHT22;42754;0.000;0.000;2023-05-23T03:55:13;14.40;99.90
56869;DHT22;42754;0.000;0.000;2023-05-23T03:57:39;14.40;99.90
56869;DHT22;42754;0.000;0.000;2023-05-23T04:00:05;14.40;99.90
56869;DHT22;42754;0.000;0.000;2023-05-23T04:02:31;14.40;99.90
56869;DHT22;42754;0.000;0.000;2023-05-23T04:04:57;14.30;99.90
56869;DHT22;42754;0.000;0.000;2023-05-23T04:07:22;14.40;99.90
56869;DHT22;42754;0.000;0.000;2023-05-23T04:09:50;14.40;99.90
56869;DHT22;42754;0.000;0.000;2023-05-23T04:12:18;14.40;99.90
56869;DHT22;42754;0.000;0.000;2023-05-23T04:14:46;14.40;99.90
56869;DHT22;42754;0.000;0.000;2023-05-23T04:17:12;14.40;99.90
56869;DHT22;42754;0.000;0.000;2023-05-23T04:19:38;14.40;99.90
56869;DHT22;42754;0.000;0.000;2023-05-23T04:22:05;14.40;99.90
56869;DHT22;42754;0.000;0.000;2023-05-23T04:24:31;14.40;99.90
56869;DHT22;42754;0.000;0.000;2023-05-23T04:26:57;14.40;99.90
56869;DHT22;42754;0.000;0.000;2023-05-23T04:29:23;14.30;99.90
56869;DHT22;42754;0.000;0.000;2023-05-23T04:31:50;14.30;99.90
56869;DHT22;42754;0.000;0.000;2023-05-23T04:34:15;14.40;99.90
56869;DHT22;42754;0.000;0.000;2023-05-23T04:36:42;14.40;99.90
56869;DHT22;42754;0.000;0.000;2023-05-23T04:39:08;14.30;99.90
56869;DHT22;42754;0.000;0.000;2023-05-23T04:41:35;14.30;99.90
56869;DHT22;42754;0.000;0.000;2023-05-23T04:44:01;14.40;99.90
56869;DHT22;42754;0.000;0.000;2023-05-23T04:46:26;14.40;99.90
56869;DHT22;42754;0.000;0.000;2023-05-23T04:48:52;14.40;99.90
56869;DHT22;42754;0.000;0.000;2023-05-23T04:51:20;14.50;99.90
56869;DHT22;42754;0.000;0.000;2023-05-23T04:53:46;14.40;99.90
56869;DHT22;42754;0.000;0.000;2023-05-23T04:56:12;14.40;99.90
56869;DHT22;42754;0.000;0.000;2023-05-23T04:58:38;14.40;99.90
56869;DHT22;42754;0.000;0.000;2023-05-23T05:01:06;14.20;99.90
56869;DHT22;42754;0.000;0.000;2023-05-23T05:03:35;14.20;99.90
56869;DHT22;42754;0.000;0.000;2023-05-23T05:06:01;14.20;99.90
56869;DHT22;42754;0.000;0.000;2023-05-23T05:08:26;14.20;99.90
56869;DHT22;42754;0.000;0.000;2023-05-23T05:10:53;14.10;99.90
56869;DHT22;42754;0.000;0.000;2023-05-23T05:13:19;14.10;99.90
56869;DHT22;42754;0.000;0.000;2023-05-23T05:15:44;14.10;99.90
56869;DHT22;42754;0.000;0.000;2023-05-23T05:18:11;14.10;99.90
56869;DHT22;42754;0.000;0.000;2023-05-23T05:20:37;14.10;99.90
56869;DHT22;42754;0.000;0.000;2023-05-23T05:23:03;14.10;99.90
56869;DHT22;42754;0.000;0.000;2023-05-23T05:25:28;14.10;99.90
56869;DHT22;42754;0.000;0.000;2023-05-23T05:27:59;14.00;99.90
56869;DHT22;42754;0.000;0.000;2023-05-23T05:30:30;13.90;99.90
56869;DHT22;42754;0.000;0.000;2023-05-23T05:32:58;13.90;99.90
56869;DHT22;42754;0.000;0.000;2023-05-23T05:35:23;13.80;99.90
56869;DHT22;42754;0.000;0.000;2023-05-23T05:37:49;13.80;99.90
56869;DHT22;42754;0.000;0.000;2023-05-23T05:40:14;13.70;99.90
56869;DHT22;42754;0.000;0.000;2023-05-23T05:42:41;13.60;99.90
56869;DHT22;42754;0.000;0.000;2023-05-23T05:45:06;13.60;99.90
56869;DHT22;42754;0.000;0.000;2023-05-23T05:47:33;13.60;99.90
56869;DHT22;42754;0.000;0.000;2023-05-23T05:49:58;13.60;99.90
56869;DHT22;42754;0.000;0.000;2023-05-23T05:52:25;13.50;99.90
56869;DHT22;42754;0.000;0.000;2023-05-23T05:54:50;13.50;99.90
56869;DHT22;42754;0.000;0.000;2023-05-23T05:57:16;13.50;99.90
56869;DHT22;42754;0.000;0.000;2023-05-23T05:59:42;13.50;99.90
56869;DHT22;42754;0.000;0.000;2023-05-23T06:02:07;13.40;99.90
56869;DHT22;42754;0.000;0.000;2023-05-23T06:04:33;13.50;99.90
56869;DHT22;42754;0.000;0.000;2023-05-23T06:06:58;13.40;99.90
56869;DHT22;42754;0.000;0.000;2023-05-23T06:09:24;13.40;99.90
56869;DHT22;42754;0.000;0.000;2023-05-23T06:11:49;13.40;99.90
56869;DHT22;42754;0.000;0.000;2023-05-23T06:14:15;13.40;99.90
56869;DHT22;42754;0.000;0.000;2023-05-23T06:16:41;13.40;99.90
56869;DHT22;42754;0.000;0.000;2023-05-23T06:19:08;13.30;99.90
56869;DHT22;42754;0.000;0.000;2023-05-23T06:21:33;13.30;99.90
56869;DHT22;42754;0.000;0.000;2023-05-23T06:24:00;13.40;99.90
56869;DHT22;42754;0.000;0.000;2023-05-23T06:26:25;13.30;99.90
56869;DHT22;42754;0.000;0.000;2023-05-23T06:28:53;13.30;99.90
56869;DHT22;42754;0.000;0.000;2023-05-23T06:31:18;13.30;99.90
56869;DHT22;42754;0.000;0.000;2023-05-23T06:33:44;13.20;99.90
56869;DHT22;42754;0.000;0.000;2023-05-23T06:36:09;13.10;99.90
56869;DHT22;42754;0.000;0.000;2023-05-23T06:38:35;13.10;99.90
56869;DHT22;42754;0.000;0.000;2023-05-23T06:41:01;13.10;99.90
56869;DHT22;42754;0.000;0.000;2023-05-23T06:43:28;12.90;99.90
56869;DHT22;42754;0.000;0.000;2023-05-23T06:45:53;12.80;99.90
56869;DHT22;42754;0.000;0.000;2023-05-23T06:48:19;12.90;99.90
56869;DHT22;42754;0.000;0.000;2023-05-23T06:50:44;13.00;99.90
56869;DHT22;42754;0.000;0.000;2023-05-23T06:53:10;13.10;99.90
56869;DHT22;42754;0.000;0.000;2023-05-23T06:55:36;13.10;99.90
56869;DHT22;42754;0.000;0.000;2023-05-23T06:58:01;13.00;99.90
56869;DHT22;42754;0.000;0.000;2023-05-23T07:00:29;12.90;99.90
56869;DHT22;42754;0.000;0.000;2023-05-23T07:02:55;12.80;99.90
56869;DHT22;42754;0.000;0.000;2023-05-23T07:05:21;12.90;99.90
56869;DHT22;42754;0.000;0.000;2023-05-23T07:07:46;13.00;99.90
56869;DHT22;42754;0.000;0.000;2023-05-23T07:10:12;13.10;99.90
56869;DHT22;42754;0.000;0.000;2023-05-23T07:12:38;13.10;99.90
56869;DHT22;42754;0.000;0.000;2023-05-23T07:15:03;13.30;99.90
56869;DHT22;42754;0.000;0.000;2023-05-23T07:17:30;13.40;99.90
56869;DHT22;42754;0.000;0.000;2023-05-23T07:19:55;13.50;99.90
56869;DHT22;42754;0.000;0.000;2023-05-23T07:22:21;13.40;99.90
56869;DHT22;42754;0.000;0.000;2023-05-23T07:24:46;13.60;99.90
56869;DHT22;42754;0.000;0.000;2023-05-23T07:27:12;13.70;99.90
56869;DHT22;42754;0.000;0.000;2023-05-23T07:29:38;13.90;99.90
56869;DHT22;42754;0.000;0.000;2023-05-23T07:32:04;14.00;99.90
56869;DHT22;42754;0.000;0.000;2023-05-23T07:34:30;13.90;99.90
56869;DHT22;42754;0.000;0.000;2023-05-23T07:36:55;14.00;99.90
56869;DHT22;42754;0.000;0.000;2023-05-23T07:39:21;14.00;99.90
56869;DHT22;42754;0.000;0.000;2023-05-23T07:41:52;13.80;99.90
56869;DHT22;42754;0.000;0.000;2023-05-23T07:44:18;13.90;99.90
56869;DHT22;42754;0.000;0.000;2023-05-23T07:46:45;14.00;99.90
56869;DHT22;42754;0.000;0.000;2023-05-23T07:49:11;14.10;99.90
56869;DHT22;42754;0.000;0.000;2023-05-23T07:51:38;14.00;99.90
56869;DHT22;42754;0.000;0.000;2023-05-23T07:54:03;14.20;99.90
56869;DHT22;42754;0.000;0.000;2023-05-23T07:56:29;14.30;99.90
56869;DHT22;42754;0.000;0.000;2023-05-23T07:58:55;14.50;99.90
56869;DHT22;42754;0.000;0.000;2023-05-23T08:01:21;14.70;99.90
56869;DHT22;42754;0.000;0.000;2023-05-23T08:03:47;14.70;99.90
56869;DHT22;42754;0.000;0.000;2023-05-23T08:06:12;14.50;99.90
56869;DHT22;42754;0.000;0.000;2023-05-23T08:08:38;14.50;99.90
56869;DHT22;42754;0.000;0.000;2023-05-23T08:11:04;14.60;99.90
56869;DHT22;42754;0.000;0.000;2023-05-23T08:13:29;14.50;99.90
56869;DHT22;42754;0.000;0.000;2023-05-23T08:15:55;14.30;99.90
56869;DHT22;42754;0.000;0.000;2023-05-23T08:18:21;14.40;99.90
56869;DHT22;42754;0.000;0.000;2023-05-23T08:20:46;14.70;99.90
56869;DHT22;42754;0.000;0.000;2023-05-23T08:23:12;14.50;99.90
56869;DHT22;42754;0.000;0.000;2023-05-23T08:25:38;14.40;99.90
56869;DHT22;42754;0.000;0.000;2023-05-23T08:28:04;14.20;99.90
56869;DHT22;42754;0.000;0.000;2023-05-23T08:30:29;14.10;99.90
56869;DHT22;42754;0.000;0.000;2023-05-23T08:32:57;14.20;99.90
56869;DHT22;42754;0.000;0.000;2023-05-23T08:35:22;14.60;99.90
56869;DHT22;42754;0.000;0.000;2023-05-23T08:37:48;15.20;99.90
56869;DHT22;42754;0.000;0.000;2023-05-23T08:40:18;15.40;99.90
56869;DHT22;42754;0.000;0.000;2023-05-23T08:42:46;15.40;99.90
56869;DHT22;42754;0.000;0.000;2023-05-23T08:45:12;15.30;99.90
56869;DHT22;42754;0.000;0.000;2023-05-23T08:47:38;15.20;99.90
56869;DHT22;42754;0.000;0.000;2023-05-23T08:50:06;15.00;99.90
56869;DHT22;42754;0.000;0.000;2023-05-23T08:52:32;15.10;99.90
56869;DHT22;42754;0.000;0.000;2023-05-23T08:54:59;14.80;99.90
56869;DHT22;42754;0.000;0.000;2023-05-23T08:57:25;14.50;99.90
56869;DHT22;42754;0.000;0.000;2023-05-23T08:59:51;14.60;99.90
56869;DHT22;42754;0.000;0.000;2023-05-23T09:02:17;14.70;99.90
56869;DHT22;42754;0.000;0.000;2023-05-23T09:04:43;14.90;99.90
56869;DHT22;42754;0.000;0.000;2023-05-23T09:07:08;14.90;99.90
56869;DHT22;42754;0.000;0.000;2023-05-23T09:09:35;14.90;99.90
56869;DHT22;42754;0.000;0.000;2023-05-23T09:12:00;15.00;99.90
56869;DHT22;42754;0.000;0.000;2023-05-23T09:14:27;15.10;99.90
56869;DHT22;42754;0.000;0.000;2023-05-23T09:16:59;15.20;99.90
56869;DHT22;42754;0.000;0.000;2023-05-23T09:19:27;15.30;99.90
56869;DHT22;42754;0.000;0.000;2023-05-23T09:21:53;15.20;99.90
56869;DHT22;42754;0.000;0.000;2023-05-23T09:24:19;15.30;99.90
56869;DHT22;42754;0.000;0.000;2023-05-23T09:26:48;15.10;99.90
56869;DHT22;42754;0.000;0.000;2023-05-23T09:29:18;15.30;99.90
56869;DHT22;42754;0.000;0.000;2023-05-23T09:31:43;15.10;99.90
56869;DHT22;42754;0.000;0.000;2023-05-23T09:34:09;16.10;99.90
56869;DHT22;42754;0.000;0.000;2023-05-23T09:36:35;16.70;99.90
56869;DHT22;42754;0.000;0.000;2023-05-23T09:39:02;16.50;99.90
56869;DHT22;42754;0.000;0.000;2023-05-23T09:41:32;16.00;99.90
56869;DHT22;42754;0.000;0.000;2023-05-23T09:43:58;16.40;99.90
56869;DHT22;42754;0.000;0.000;2023-05-23T09:46:29;16.80;99.90
56869;DHT22;42754;0.000;0.000;2023-05-23T09:48:55;17.10;99.90
56869;DHT22;42754;0.000;0.000;2023-05-23T09:51:21;16.70;99.90
56869;DHT22;42754;0.000;0.000;2023-05-23T09:53:47;16.30;99.90
56869;DHT22;42754;0.000;0.000;2023-05-23T09:56:14;16.40;99.90
56869;DHT22;42754;0.000;0.000;2023-05-23T09:58:46;16.40;99.90
56869;DHT22;42754;0.000;0.000;2023-05-23T10:01:12;16.80;99.90
56869;DHT22;42754;0.000;0.000;2023-05-23T10:03:46;17.00;99.90
56869;DHT22;42754;0.000;0.000;2023-05-23T10:08:44;17.20;98.50
56869;DHT22;42754;0.000;0.000;2023-05-23T10:13:43;17.20;97.70
56869;DHT22;42754;0.000;0.000;2023-05-23T10:18:44;17.60;98.00
56869;DHT22;42754;0.000;0.000;2023-05-23T10:21:16;17.80;97.30
56869;DHT22;42754;0.000;0.000;2023-05-23T10:23:43;17.70;98.00
56869;DHT22;42754;0.000;0.000;2023-05-23T10:26:08;17.80;99.00
56869;DHT22;42754;0.000;0.000;2023-05-23T10:28:35;17.50;98.00
56869;DHT22;42754;0.000;0.000;2023-05-23T10:31:01;17.70;98.30
56869;DHT22;42754;0.000;0.000;2023-05-23T10:33:27;17.50;98.40
56869;DHT22;42754;0.000;0.000;2023-05-23T10:35:59;17.20;97.00
56869;DHT22;42754;0.000;0.000;2023-05-23T10:43:46;17.60;97.70
56869;DHT22;42754;0.000;0.000;2023-05-23T10:46:13;17.60;96.30
56869;DHT22;42754;0.000;0.000;2023-05-23T10:48:42;17.70;96.00
56869;DHT22;42754;0.000;0.000;2023-05-23T10:51:12;17.60;95.10
56869;DHT22;42754;0.000;0.000;2023-05-23T10:53:39;18.00;96.00
56869;DHT22;42754;0.000;0.000;2023-05-23T10:56:06;18.30;96.00
56869;DHT22;42754;0.000;0.000;2023-05-23T10:58:32;18.00;94.60
56869;DHT22;42754;0.000;0.000;2023-05-23T11:01:01;18.10;95.20
56869;DHT22;42754;0.000;0.000;2023-05-23T11:06:27;18.20;95.60
56869;DHT22;42754;0.000;0.000;2023-05-23T11:09:01;18.20;94.40
56869;DHT22;42754;0.000;0.000;2023-05-23T11:11:50;18.10;94.70
56869;DHT22;42754;0.000;0.000;2023-05-23T11:14:13;18.00;95.30
56869;DHT22;42754;0.000;0.000;2023-05-23T11:16:39;17.90;94.30
56869;DHT22;42754;0.000;0.000;2023-05-23T11:22:17;17.90;94.80
56869;DHT22;42754;0.000;0.000;2023-05-23T11:24:50;18.30;94.10
56869;DHT22;42754;0.000;0.000;2023-05-23T11:27:17;18.90;94.40
56869;DHT22;42754;0.000;0.000;2023-05-23T11:29:57;19.00;93.20
56869;DHT22;42754;0.000;0.000;2023-05-23T11:32:23;19.00;92.50
56869;DHT22;42754;0.000;0.000;2023-05-23T11:34:51;18.20;93.20
56869;DHT22;42754;0.000;0.000;2023-05-23T11:37:17;18.30;93.10
56869;DHT22;42754;0.000;0.000;2023-05-23T11:39:43;18.20;93.60
56869;DHT22;42754;0.000;0.000;2023-05-23T11:42:08;18.50;94.50
56869;DHT22;42754;0.000;0.000;2023-05-23T11:44:34;18.60;94.60
56869;DHT22;42754;0.000;0.000;2023-05-23T11:47:00;18.60;93.80
56869;DHT22;42754;0.000;0.000;2023-05-23T11:49:30;18.90;93.90
56869;DHT22;42754;0.000;0.000;2023-05-23T11:51:57;19.00;91.90
56869;DHT22;42754;0.000;0.000;2023-05-23T11:54:26;18.90;91.60
56869;DHT22;42754;0.000;0.000;2023-05-23T11:56:52;19.10;92.10
56869;DHT22;42754;0.000;0.000;2023-05-23T11:59:18;19.20;91.50
56869;DHT22;42754;0.000;0.000;2023-05-23T12:01:45;18.60;92.10
56869;DHT22;42754;0.000;0.000;2023-05-23T12:04:11;19.00;92.00
56869;DHT22;42754;0.000;0.000;2023-05-23T12:06:39;19.10;92.20
56869;DHT22;42754;0.000;0.000;2023-05-23T12:09:06;18.40;91.70
56869;DHT22;42754;0.000;0.000;2023-05-23T12:11:34;18.60;91.80
56869;DHT22;42754;0.000;0.000;2023-05-23T12:14:00;18.70;91.70
56869;DHT22;42754;0.000;0.000;2023-05-23T12:16:31;18.60;91.60
56869;DHT22;42754;0.000;0.000;2023-05-23T12:18:58;18.80;92.60
56869;DHT22;42754;0.000;0.000;2023-05-23T12:21:25;18.60;91.60
56869;DHT22;42754;0.000;0.000;2023-05-23T12:23:51;18.50;92.80
56869;DHT22;42754;0.000;0.000;2023-05-23T12:26:16;18.30;92.00
56869;DHT22;42754;0.000;0.000;2023-05-23T12:28:42;19.00;93.70
56869;DHT22;42754;0.000;0.000;2023-05-23T12:33:40;19.20;92.00
56869;DHT22;42754;0.000;0.000;2023-05-23T12:36:08;19.20;91.50
56869;DHT22;42754;0.000;0.000;2023-05-23T12:38:33;19.20;90.90
56869;DHT22;42754;0.000;0.000;2023-05-23T12:43:38;18.30;91.70
56869;DHT22;42754;0.000;0.000;2023-05-23T12:46:04;18.20;92.70
56869;DHT22;42754;0.000;0.000;2023-05-23T12:48:30;17.80;92.60
56869;DHT22;42754;0.000;0.000;2023-05-23T12:50:56;18.20;92.20
56869;DHT22;42754;0.000;0.000;2023-05-23T12:53:22;18.70;92.10
56869;DHT22;42754;0.000;0.000;2023-05-23T12:55:47;18.90;92.20
56869;DHT22;42754;0.000;0.000;2023-05-23T12:58:13;18.80;91.60
56869;DHT22;42754;0.000;0.000;2023-05-23T13:00:38;18.70;91.70
56869;DHT22;42754;0.000;0.000;2023-05-23T13:03:04;18.70;91.90
56869;DHT22;42754;0.000;0.000;2023-05-23T13:05:31;18.10;90.00
56869;DHT22;42754;0.000;0.000;2023-05-23T13:07:56;18.60;91.10
56869;DHT22;42754;0.000;0.000;2023-05-23T13:10:23;18.40;90.20
56869;DHT22;42754;0.000;0.000;2023-05-23T13:12:49;18.30;90.90
56869;DHT22;42754;0.000;0.000;2023-05-23T13:15:14;18.00;91.30
56869;DHT22;42754;0.000;0.000;2023-05-23T13:17:40;18.40;90.80
56869;DHT22;42754;0.000;0.000;2023-05-23T13:20:06;19.00;91.90
56869;DHT22;42754;0.000;0.000;2023-05-23T13:22:33;18.90;88.60
56869;DHT22;42754;0.000;0.000;2023-05-23T13:24:59;18.60;88.90
56869;DHT22;42754;0.000;0.000;2023-05-23T13:27:24;18.10;89.10
56869;DHT22;42754;0.000;0.000;2023-05-23T13:29:50;18.00;90.10
56869;DHT22;42754;0.000;0.000;2023-05-23T13:32:15;17.60;91.00
56869;DHT22;42754;0.000;0.000;2023-05-23T13:34:41;17.40;91.10
56869;DHT22;42754;0.000;0.000;2023-05-23T13:37:07;17.70;90.90
56869;DHT22;42754;0.000;0.000;2023-05-23T13:39:34;17.80;91.80
56869;DHT22;42754;0.000;0.000;2023-05-23T13:41:59;17.90;91.20
56869;DHT22;42754;0.000;0.000;2023-05-23T13:44:25;18.50;91.50
56869;DHT22;42754;0.000;0.000;2023-05-23T13:46:50;18.40;91.70
56869;DHT22;42754;0.000;0.000;2023-05-23T13:49:16;17.90;90.80
56869;DHT22;42754;0.000;0.000;2023-05-23T13:51:41;17.60;91.10
56869;DHT22;42754;0.000;0.000;2023-05-23T13:54:08;17.60;91.90
56869;DHT22;42754;0.000;0.000;2023-05-23T13:56:34;17.60;91.30
56869;DHT22;42754;0.000;0.000;2023-05-23T13:59:00;18.10;90.90
56869;DHT22;42754;0.000;0.000;2023-05-23T14:01:26;18.90;90.60
56869;DHT22;42754;0.000;0.000;2023-05-23T14:03:52;18.60;89.90
56869;DHT22;42754;0.000;0.000;2023-05-23T14:06:20;18.20;90.80
56869;DHT22;42754;0.000;0.000;2023-05-23T14:08:45;17.60;90.10
56869;DHT22;42754;0.000;0.000;2023-05-23T14:11:11;17.90;90.10
56869;DHT22;42754;0.000;0.000;2023-05-23T14:13:36;18.40;90.10
56869;DHT22;42754;0.000;0.000;2023-05-23T14:16:02;18.30;89.80
56869;DHT22;42754;0.000;0.000;2023-05-23T14:18:27;18.00;90.60
56869;DHT22;42754;0.000;0.000;2023-05-23T14:20:54;17.70;90.40
56869;DHT22;42754;0.000;0.000;2023-05-23T14:23:20;17.50;90.70
56869;DHT22;42754;0.000;0.000;2023-05-23T14:25:45;17.50;90.50
56869;DHT22;42754;0.000;0.000;2023-05-23T14:28:11;17.50;90.30
56869;DHT22;42754;0.000;0.000;2023-05-23T14:30:37;17.40;90.50
56869;DHT22;42754;0.000;0.000;2023-05-23T14:33:03;18.10;90.10
56869;DHT22;42754;0.000;0.000;2023-05-23T14:35:28;17.60;87.60
56869;DHT22;42754;0.000;0.000;2023-05-23T14:37:54;17.50;90.00
56869;DHT22;42754;0.000;0.000;2023-05-23T14:40:19;17.20;90.40
56869;DHT22;42754;0.000;0.000;2023-05-23T14:42:45;17.70;91.00
56869;DHT22;42754;0.000;0.000;2023-05-23T14:45:10;17.60;90.30
56869;DHT22;42754;0.000;0.000;2023-05-23T14:47:36;17.20;90.20
56869;DHT22;42754;0.000;0.000;2023-05-23T14:50:02;17.40;90.50
56869;DHT22;42754;0.000;0.000;2023-05-23T14:52:27;17.60;90.20
56869;DHT22;42754;0.000;0.000;2023-05-23T14:54:53;17.10;90.30
56869;DHT22;42754;0.000;0.000;2023-05-23T14:57:19;16.90;90.80
56869;DHT22;42754;0.000;0.000;2023-05-23T14:59:46;16.80;90.70
56869;DHT22;42754;0.000;0.000;2023-05-23T15:02:11;16.60;91.00
56869;DHT22;42754;0.000;0.000;2023-05-23T15:04:37;17.00;91.10
56869;DHT22;42754;0.000;0.000;2023-05-23T15:07:03;17.20;90.00
56869;DHT22;42754;0.000;0.000;2023-05-23T15:09:28;17.60;89.40
56869;DHT22;42754;0.000;0.000;2023-05-23T15:11:55;18.10;86.90
56869;DHT22;42754;0.000;0.000;2023-05-23T15:14:21;18.50;87.30
56869;DHT22;42754;0.000;0.000;2023-05-23T15:16:47;18.30;88.30
56869;DHT22;42754;0.000;0.000;2023-05-23T15:19:14;18.00;89.40
56869;DHT22;42754;0.000;0.000;2023-05-23T15:21:40;18.10;90.30
56869;DHT22;42754;0.000;0.000;2023-05-23T15:24:06;18.00;90.30
56869;DHT22;42754;0.000;0.000;2023-05-23T15:26:33;17.90;90.80
56869;DHT22;42754;0.000;0.000;2023-05-23T15:28:58;17.50;90.30
56869;DHT22;42754;0.000;0.000;2023-05-23T15:31:24;17.30;90.20
56869;DHT22;42754;0.000;0.000;2023-05-23T15:33:50;17.40;90.10
56869;DHT22;42754;0.000;0.000;2023-05-23T15:36:15;17.60;87.20
56869;DHT22;42754;0.000;0.000;2023-05-23T15:38:41;17.50;85.80
56869;DHT22;42754;0.000;0.000;2023-05-23T15:41:08;17.20;89.70
56869;DHT22;42754;0.000;0.000;2023-05-23T15:43:34;16.90;90.20
56869;DHT22;42754;0.000;0.000;2023-05-23T15:45:59;17.00;90.50
56869;DHT22;42754;0.000;0.000;2023-05-23T15:48:25;16.80;90.90
56869;DHT22;42754;0.000;0.000;2023-05-23T15:50:51;16.80;90.80
56869;DHT22;42754;0.000;0.000;2023-05-23T15:53:16;17.00;91.10
56869;DHT22;42754;0.000;0.000;2023-05-23T15:55:42;16.90;90.70
56869;DHT22;42754;0.000;0.000;2023-05-23T15:58:07;16.70;91.30
56869;DHT22;42754;0.000;0.000;2023-05-23T16:00:33;16.40;91.00
56869;DHT22;42754;0.000;0.000;2023-05-23T16:02:59;16.60;90.60
56869;DHT22;42754;0.000;0.000;2023-05-23T16:05:25;17.10;90.40
56869;DHT22;42754;0.000;0.000;2023-05-23T16:07:56;16.80;90.50
56869;DHT22;42754;0.000;0.000;2023-05-23T16:10:22;16.60;90.40
56869;DHT22;42754;0.000;0.000;2023-05-23T16:12:49;16.40;91.20